Time;durP1;ratioP1;P1;durP2;ratioP2;P2;SDS_P1;SDS_P2;PMS_P1;PMS_P2;Temp;Humidity;BMP_temperature;BMP_pressure;BME280_temperature;BME280_humidity;BME280_pressure;Samples;Min_cycle;Max_cycle;Signal;HPM_P1;HPM_P2
2022/09/30 00:01:05;;;;;;;55.97;15.60;;;4.10;99.90;;;;;;5117827;28;20192;-77
2022/09/30 00:03:32;;;;;;;28.77;14.17;;;4.10;99.90;;;;;;5117338;28;20193;-75
2022/09/30 00:05:58;;;;;;;35.17;16.23;;;4.00;99.90;;;;;;5117160;28;20220;-75
2022/09/30 00:08:25;;;;;;;21.37;13.33;;;3.80;99.90;;;;;;5117188;28;20200;-75
2022/09/30 00:11:03;;;;;;;53.47;13.67;;;3.80;99.90;;;;;;5117191;28;20249;-75
2022/09/30 00:13:31;;;;;;;27.07;13.23;;;3.80;99.90;;;;;;5117236;28;20199;-75
2022/09/30 00:15:59;;;;;;;30.07;13.50;;;3.80;99.90;;;;;;5116849;28;20666;-74
2022/09/30 00:18:26;;;;;;;40.13;14.20;;;3.80;99.90;;;;;;5116250;28;20215;-74
2022/09/30 00:20:53;;;;;;;48.80;14.60;;;3.80;99.90;;;;;;5116039;28;20203;-74
2022/09/30 00:23:19;;;;;;;101.90;18.43;;;3.70;99.90;;;;;;5115954;28;20266;-74
2022/09/30 00:25:46;;;;;;;69.40;16.13;;;3.70;99.90;;;;;;5115881;28;20196;-74
2022/09/30 00:28:13;;;;;;;42.10;15.20;;;3.70;99.90;;;;;;5115613;28;20198;-75
2022/09/30 00:30:40;;;;;;;52.73;15.47;;;3.70;99.90;;;;;;5116110;27;20250;-74
2022/09/30 00:33:08;;;;;;;46.90;13.70;;;3.80;99.90;;;;;;5115935;28;20673;-74
2022/09/30 00:35:37;;;;;;;68.80;14.63;;;3.90;99.90;;;;;;5115844;28;20249;-74
2022/09/30 00:38:03;;;;;;;42.47;14.23;;;3.80;99.90;;;;;;5116019;28;20203;-74
2022/09/30 00:40:30;;;;;;;50.57;15.00;;;3.70;99.90;;;;;;5117236;28;20724;-75
2022/09/30 00:42:57;;;;;;;49.17;13.63;;;3.70;99.90;;;;;;5117681;28;20203;-74
2022/09/30 00:45:26;;;;;;;31.23;12.77;;;3.80;99.90;;;;;;5115607;28;20200;-73
2022/09/30 00:47:57;;;;;;;37.10;13.83;;;3.70;99.90;;;;;;5115361;28;20616;-73
2022/09/30 00:50:34;;;;;;;19.87;12.43;;;3.70;99.90;;;;;;5115416;28;20229;-74
2022/09/30 00:53:08;;;;;;;33.67;13.57;;;3.50;99.90;;;;;;5115354;28;20203;-74
2022/09/30 00:55:43;;;;;;;19.83;12.93;;;3.40;99.90;;;;;;5115031;28;20230;-74
2022/09/30 00:58:15;;;;;;;26.47;13.10;;;3.40;99.90;;;;;;5115117;28;20233;-74
2022/09/30 01:00:42;;;;;;;29.40;14.93;;;3.40;99.90;;;;;;5114960;28;20623;-74
2022/09/30 01:03:09;;;;;;;28.30;13.70;;;3.60;99.90;;;;;;5115136;28;20200;-73
2022/09/30 01:05:37;;;;;;;27.90;13.83;;;3.60;99.90;;;;;;5114872;27;20196;-74
2022/09/30 01:08:07;;;;;;;22.80;14.30;;;3.70;99.90;;;;;;5114804;28;20276;-74
2022/09/30 01:10:33;;;;;;;22.07;14.20;;;3.60;99.90;;;;;;5114656;28;20245;-73
2022/09/30 01:13:00;;;;;;;30.70;14.67;;;3.50;99.90;;;;;;5114433;28;20199;-74
2022/09/30 01:15:40;;;;;;;34.57;14.83;;;3.50;99.90;;;;;;5114562;28;20659;-73
2022/09/30 01:18:13;;;;;;;36.77;15.73;;;3.60;99.90;;;;;;5114922;28;20195;-74
2022/09/30 01:21:13;;;;;;;22.47;15.40;;;3.50;99.90;;;;;;5114690;27;20196;-74
2022/09/30 01:24:04;;;;;;;21.23;13.97;;;3.50;99.90;;;;;;5114815;28;20248;-74
2022/09/30 01:26:55;;;;;;;29.60;14.87;;;3.40;99.90;;;;;;5114701;28;20756;-73
2022/09/30 01:29:41;;;;;;;29.47;15.80;;;3.50;99.90;;;;;;5114393;28;20261;-73
2022/09/30 01:32:16;;;;;;;23.93;14.60;;;3.50;99.90;;;;;;5114862;28;20245;-73
2022/09/30 01:34:52;;;;;;;23.40;14.57;;;3.40;99.90;;;;;;5113940;28;20195;-73
2022/09/30 01:37:28;;;;;;;22.73;14.47;;;3.30;99.90;;;;;;5114559;28;20207;-74
2022/09/30 01:40:03;;;;;;;26.30;15.67;;;3.40;99.90;;;;;;5114219;28;20592;-73
2022/09/30 01:42:39;;;;;;;23.37;14.60;;;3.50;99.90;;;;;;5114771;28;20205;-74
2022/09/30 01:45:12;;;;;;;23.73;15.17;;;3.60;99.90;;;;;;5114625;28;20202;-73
2022/09/30 01:47:46;;;;;;;28.43;15.57;;;3.60;99.90;;;;;;5114263;28;20318;-74
2022/09/30 01:50:18;;;;;;;34.90;15.50;;;3.50;99.90;;;;;;5114092;27;20240;-74
2022/09/30 01:52:51;;;;;;;27.67;14.47;;;3.60;99.90;;;;;;5113997;28;20593;-73
2022/09/30 01:55:24;;;;;;;28.87;15.03;;;3.70;99.90;;;;;;5114252;28;20265;-73
2022/09/30 01:57:59;;;;;;;30.67;14.80;;;3.60;99.90;;;;;;5114139;28;20199;-73
2022/09/30 02:00:26;;;;;;;46.50;15.63;;;3.60;99.90;;;;;;5113885;28;20199;-73
2022/09/30 02:02:58;;;;;;;45.70;16.27;;;3.60;99.90;;;;;;5113825;28;20196;-73
2022/09/30 02:05:29;;;;;;;51.70;16.47;;;3.60;99.90;;;;;;5114116;28;20203;-73
2022/09/30 02:08:00;;;;;;;43.63;16.27;;;3.70;99.90;;;;;;5114110;28;20277;-74
2022/09/30 02:10:31;;;;;;;53.50;16.33;;;3.70;99.90;;;;;;5113880;28;20670;-73
2022/09/30 02:13:04;;;;;;;67.30;17.30;;;3.70;99.90;;;;;;5113732;28;20203;-74
2022/09/30 02:15:35;;;;;;;66.77;17.33;;;3.70;99.90;;;;;;5113892;28;20204;-73
2022/09/30 02:18:09;;;;;;;52.17;16.73;;;3.60;99.90;;;;;;5114379;28;20237;-73
2022/09/30 02:20:40;;;;;;;59.57;16.87;;;3.70;99.90;;;;;;5115243;28;20200;-73
2022/09/30 02:23:12;;;;;;;75.33;18.07;;;3.70;99.90;;;;;;5115849;28;20280;-74
2022/09/30 02:25:44;;;;;;;57.93;17.63;;;3.60;99.90;;;;;;5114913;28;20204;-73
2022/09/30 02:28:15;;;;;;;22.97;15.20;;;3.60;99.90;;;;;;5114715;28;20227;-74
2022/09/30 02:30:47;;;;;;;49.10;16.60;;;3.50;99.90;;;;;;5113603;28;20223;-73
2022/09/30 02:33:19;;;;;;;49.40;16.97;;;3.60;99.90;;;;;;5113427;28;20195;-73
2022/09/30 02:35:50;;;;;;;63.70;17.30;;;3.60;99.90;;;;;;5113371;28;20252;-73
2022/09/30 02:38:19;;;;;;;115.80;19.37;;;3.50;99.90;;;;;;5113207;28;20195;-73
2022/09/30 02:40:50;;;;;;;76.50;16.73;;;3.40;99.90;;;;;;5113552;28;20252;-73
2022/09/30 02:43:19;;;;;;;71.50;16.17;;;3.20;99.90;;;;;;5113385;28;20647;-73
2022/09/30 02:45:51;;;;;;;90.47;16.57;;;3.10;99.90;;;;;;5113739;28;20621;-73
2022/09/30 02:48:28;;;;;;;61.40;16.13;;;3.10;99.90;;;;;;5117573;27;20228;-73
2022/09/30 02:51:03;;;;;;;61.90;15.07;;;3.10;99.90;;;;;;5117479;28;20237;-73
2022/09/30 02:53:37;;;;;;;35.80;13.80;;;3.10;99.90;;;;;;5117629;28;20353;-73
2022/09/30 02:56:13;;;;;;;99.03;17.40;;;3.00;99.90;;;;;;5117549;28;20206;-73
2022/09/30 02:58:40;;;;;;;108.23;18.90;;;3.00;99.90;;;;;;5117389;28;20222;-73
2022/09/30 03:01:09;;;;;;;41.73;15.80;;;2.90;99.90;;;;;;5117299;28;20199;-73
2022/09/30 03:03:42;;;;;;;46.03;16.20;;;3.00;99.90;;;;;;5117690;28;20206;-73
2022/09/30 03:06:09;;;;;;;31.90;15.43;;;3.10;99.90;;;;;;5117492;28;20651;-73
2022/09/30 03:08:37;;;;;;;65.07;16.20;;;3.10;99.90;;;;;;5117204;28;20227;-73
2022/09/30 03:11:04;;;;;;;36.17;15.07;;;3.20;99.90;;;;;;5117490;28;20639;-73
2022/09/30 03:13:55;;;;;;;31.27;15.30;;;3.20;99.90;;;;;;5116990;28;20268;-73
2022/09/30 03:16:36;;;;;;;39.77;16.87;;;3.20;99.90;;;;;;5117330;28;20287;-74
2022/09/30 03:19:22;;;;;;;41.53;15.40;;;3.20;99.90;;;;;;5116904;28;20589;-73
2022/09/30 03:22:06;;;;;;;46.77;16.00;;;3.10;99.90;;;;;;5116698;28;20301;-73
2022/09/30 03:24:50;;;;;;;37.50;15.00;;;3.10;99.90;;;;;;5117139;28;20199;-73
2022/09/30 03:27:23;;;;;;;78.60;18.53;;;3.20;99.90;;;;;;5116991;28;20272;-73
2022/09/30 03:29:56;;;;;;;69.47;18.00;;;3.30;99.90;;;;;;5116772;28;20601;-73
2022/09/30 03:32:37;;;;;;;74.33;16.90;;;3.20;99.90;;;;;;5116671;28;20204;-73
2022/09/30 03:35:17;;;;;;;37.63;16.87;;;3.30;99.90;;;;;;5118210;28;20600;-73
2022/09/30 03:37:51;;;;;;;40.50;16.23;;;3.20;99.90;;;;;;5116705;28;20200;-72
2022/09/30 03:40:28;;;;;;;35.43;16.63;;;3.20;99.90;;;;;;5116667;28;20196;-72
2022/09/30 03:43:00;;;;;;;61.33;18.43;;;3.20;99.90;;;;;;5116423;28;20587;-72
2022/09/30 03:45:34;;;;;;;38.47;15.63;;;3.20;99.90;;;;;;5116585;28;20199;-72
2022/09/30 03:48:05;;;;;;;40.13;16.00;;;3.30;99.90;;;;;;5116652;28;20223;-73
2022/09/30 03:50:35;;;;;;;55.77;16.87;;;3.30;99.90;;;;;;5116675;28;20196;-72
2022/09/30 03:53:03;;;;;;;36.93;17.30;;;3.30;99.90;;;;;;5116455;28;20208;-73
2022/09/30 03:55:32;;;;;;;31.70;17.30;;;3.20;99.90;;;;;;5116265;28;20199;-72
2022/09/30 03:57:59;;;;;;;46.10;18.37;;;3.20;99.90;;;;;;5115934;28;20193;-73
2022/09/30 04:00:25;;;;;;;44.47;18.53;;;3.30;99.90;;;;;;5116601;28;20196;-72
2022/09/30 04:02:52;;;;;;;41.70;17.57;;;3.20;99.90;;;;;;5116371;28;20548;-72
2022/09/30 04:05:19;;;;;;;43.40;17.57;;;3.10;99.90;;;;;;5116209;28;20593;-73
2022/09/30 04:07:47;;;;;;;56.30;18.90;;;3.10;99.90;;;;;;5116234;28;20215;-73
2022/09/30 04:10:14;;;;;;;46.63;19.67;;;3.10;99.90;;;;;;5116598;28;20208;-73
2022/09/30 04:12:40;;;;;;;75.50;19.37;;;3.00;99.90;;;;;;5116300;28;20528;-72
2022/09/30 04:15:08;;;;;;;70.80;20.83;;;2.90;99.90;;;;;;5116481;28;20635;-73
2022/09/30 04:17:35;;;;;;;59.87;19.30;;;2.90;99.90;;;;;;5116171;27;20263;-73
2022/09/30 04:20:01;;;;;;;63.53;18.63;;;3.00;99.90;;;;;;5115895;28;20210;-73
2022/09/30 04:22:28;;;;;;;60.73;19.13;;;2.90;99.90;;;;;;5116104;28;20232;-73
2022/09/30 04:24:56;;;;;;;103.90;19.47;;;2.90;99.90;;;;;;5119577;28;20257;-73
2022/09/30 04:27:23;;;;;;;47.93;17.80;;;2.80;99.90;;;;;;5121705;28;20232;-73
2022/09/30 04:29:49;;;;;;;102.90;21.23;;;2.80;99.90;;;;;;5122206;28;20287;-73
2022/09/30 04:32:16;;;;;;;59.20;17.87;;;2.80;99.90;;;;;;5121943;28;20651;-73
2022/09/30 04:34:43;;;;;;;65.73;18.60;;;2.70;99.90;;;;;;5117966;28;20662;-73
2022/09/30 04:37:09;;;;;;;53.17;17.23;;;2.80;99.90;;;;;;5116722;28;20195;-72
2022/09/30 04:39:36;;;;;;;57.87;18.97;;;2.90;99.90;;;;;;5116526;28;20200;-72
2022/09/30 04:42:05;;;;;;;65.23;19.07;;;2.90;99.90;;;;;;5116103;28;20225;-72
2022/09/30 04:44:31;;;;;;;49.83;18.03;;;2.90;99.90;;;;;;5115948;28;20630;-72
2022/09/30 04:46:59;;;;;;;42.67;18.27;;;2.90;99.90;;;;;;5115579;28;20566;-72
2022/09/30 04:49:27;;;;;;;51.27;18.57;;;2.90;99.90;;;;;;5116056;28;20206;-72
2022/09/30 04:51:53;;;;;;;56.30;19.87;;;3.00;99.90;;;;;;5116841;28;20202;-72
2022/09/30 04:54:20;;;;;;;53.17;19.70;;;2.90;99.90;;;;;;5116689;28;20196;-74
2022/09/30 04:56:47;;;;;;;76.90;19.70;;;2.90;99.90;;;;;;5117795;28;20272;-73
2022/09/30 04:59:15;;;;;;;74.53;20.03;;;3.00;99.90;;;;;;5118610;27;20204;-72
2022/09/30 05:01:43;;;;;;;101.73;22.23;;;2.90;99.90;;;;;;5117909;28;20268;-72
2022/09/30 05:04:11;;;;;;;58.17;20.67;;;2.80;99.90;;;;;;5117139;28;20196;-73
2022/09/30 05:06:38;;;;;;;66.27;22.97;;;2.80;99.90;;;;;;5117241;28;20249;-73
2022/09/30 05:09:05;;;;;;;104.77;24.37;;;2.80;99.90;;;;;;5116128;28;20227;-73
2022/09/30 05:11:32;;;;;;;88.23;21.23;;;2.80;99.90;;;;;;5117026;28;20273;-73
2022/09/30 05:13:58;;;;;;;251.20;29.63;;;2.80;99.90;;;;;;5117318;28;20240;-73
2022/09/30 05:16:26;;;;;;;68.80;22.90;;;2.80;99.90;;;;;;5117181;28;20249;-73
2022/09/30 05:18:54;;;;;;;270.80;32.53;;;2.80;99.90;;;;;;5117331;28;20282;-73
2022/09/30 05:21:20;;;;;;;208.40;33.37;;;2.70;99.90;;;;;;5118172;28;20225;-74
2022/09/30 05:23:47;;;;;;;131.87;27.07;;;2.70;99.90;;;;;;5116903;28;20231;-73
2022/09/30 05:26:14;;;;;;;150.27;31.53;;;2.80;99.90;;;;;;5116811;27;20221;-73
2022/09/30 05:28:41;;;;;;;63.50;23.50;;;2.80;99.90;;;;;;5117027;28;20227;-72
2022/09/30 05:31:08;;;;;;;215.77;30.10;;;2.80;99.90;;;;;;5115459;28;20203;-72
2022/09/30 05:33:36;;;;;;;74.00;25.97;;;2.90;99.90;;;;;;5116045;28;20206;-72
2022/09/30 05:36:06;;;;;;;70.53;26.07;;;2.90;99.90;;;;;;5116570;28;20244;-73
2022/09/30 05:38:33;;;;;;;134.50;28.43;;;3.00;99.90;;;;;;5116729;28;20199;-71
2022/09/30 05:41:07;;;;;;;65.47;29.77;;;3.10;99.90;;;;;;5116721;28;20195;-72
2022/09/30 05:43:34;;;;;;;163.97;30.73;;;3.20;99.90;;;;;;5115935;28;20267;-72
2022/09/30 05:46:00;;;;;;;57.27;26.27;;;3.20;99.90;;;;;;5115914;28;20191;-72
2022/09/30 05:48:27;;;;;;;319.87;35.00;;;3.20;99.90;;;;;;5114812;28;20219;-72
2022/09/30 05:50:57;;;;;;;312.37;33.40;;;3.40;99.90;;;;;;5114438;28;20196;-73
2022/09/30 05:53:24;;;;;;;423.67;40.17;;;3.40;99.90;;;;;;5114368;27;20287;-73
2022/09/30 05:55:52;;;;;;;185.03;30.40;;;3.40;99.90;;;;;;5114177;28;20252;-73
2022/09/30 05:58:20;;;;;;;212.10;32.20;;;3.40;99.90;;;;;;5113950;28;20206;-73
2022/09/30 06:00:48;;;;;;;98.47;28.57;;;3.50;99.90;;;;;;5113885;28;20277;-73
2022/09/30 06:03:16;;;;;;;335.60;35.80;;;3.60;99.90;;;;;;5113882;28;20192;-73
2022/09/30 06:05:44;;;;;;;133.97;29.70;;;3.60;99.90;;;;;;5113741;28;20202;-73
2022/09/30 06:08:12;;;;;;;179.83;31.83;;;3.70;99.90;;;;;;5113609;28;20231;-72
2022/09/30 06:10:40;;;;;;;162.10;32.33;;;3.80;99.90;;;;;;5113442;28;20196;-72
2022/09/30 06:13:08;;;;;;;226.67;36.10;;;3.90;99.90;;;;;;5113581;28;20224;-73
2022/09/30 06:15:36;;;;;;;216.77;33.70;;;3.90;99.90;;;;;;5113526;28;20200;-73
2022/09/30 06:18:04;;;;;;;176.03;31.87;;;3.90;99.90;;;;;;5113431;28;20195;-74
2022/09/30 06:20:31;;;;;;;129.80;30.13;;;3.90;99.90;;;;;;5113284;28;20274;-73
2022/09/30 06:22:59;;;;;;;139.43;29.83;;;3.90;99.90;;;;;;5113314;28;20280;-73
2022/09/30 06:25:28;;;;;;;104.40;27.67;;;4.00;99.90;;;;;;5113791;28;20293;-73
2022/09/30 06:27:54;;;;;;;182.97;28.63;;;4.10;99.90;;;;;;5113131;28;20697;-73
2022/09/30 06:30:21;;;;;;;135.53;28.33;;;4.20;99.90;;;;;;5113414;28;20202;-73
2022/09/30 06:32:48;;;;;;;108.90;25.87;;;4.20;99.90;;;;;;5113417;28;20231;-73
2022/09/30 06:35:15;;;;;;;157.03;25.20;;;4.20;99.90;;;;;;5113245;28;20289;-73
2022/09/30 06:37:44;;;;;;;77.90;23.53;;;4.30;99.90;;;;;;5113219;28;20341;-73
2022/09/30 06:40:10;;;;;;;77.67;23.20;;;4.30;99.90;;;;;;5113124;28;20272;-73
2022/09/30 06:42:39;;;;;;;74.23;23.07;;;4.50;99.90;;;;;;5113423;28;20203;-73
2022/09/30 06:45:06;;;;;;;76.63;25.23;;;4.60;99.90;;;;;;5113329;28;20248;-73
2022/09/30 06:47:33;;;;;;;216.63;28.67;;;4.70;99.90;;;;;;5113124;28;20207;-74
2022/09/30 06:50:01;;;;;;;140.40;24.83;;;4.80;99.90;;;;;;5113159;28;20194;-73
2022/09/30 06:52:28;;;;;;;42.73;22.07;;;4.80;99.90;;;;;;5112915;28;20293;-72
2022/09/30 06:54:56;;;;;;;94.97;24.57;;;5.00;99.90;;;;;;5113166;28;20195;-74
2022/09/30 06:57:23;;;;;;;136.77;26.00;;;5.00;99.90;;;;;;5113159;28;20203;-74
2022/09/30 06:59:52;;;;;;;156.03;26.77;;;5.00;99.90;;;;;;5113092;28;20200;-74
2022/09/30 07:02:18;;;;;;;76.17;23.27;;;5.00;99.90;;;;;;5113126;28;20581;-74
2022/09/30 07:04:46;;;;;;;179.33;29.97;;;5.10;99.90;;;;;;5112993;28;20224;-74
2022/09/30 07:07:13;;;;;;;86.67;24.00;;;5.20;99.90;;;;;;5112810;28;20651;-73
2022/09/30 07:09:40;;;;;;;43.73;21.63;;;5.40;99.90;;;;;;5113017;28;20228;-74
2022/09/30 07:12:06;;;;;;;97.00;23.20;;;5.50;99.90;;;;;;5112872;28;20200;-71
2022/09/30 07:14:34;;;;;;;45.37;22.13;;;5.60;99.90;;;;;;5112999;28;20249;-73
2022/09/30 07:17:03;;;;;;;47.47;22.07;;;5.60;99.90;;;;;;5112819;28;20203;-73
2022/09/30 07:19:30;;;;;;;58.53;21.63;;;5.80;99.90;;;;;;5112943;28;20291;-72
2022/09/30 07:22:26;;;;;;;40.60;20.77;;;5.80;99.90;;;;;;5112837;28;20227;-73
2022/09/30 07:24:45;;;;;;;41.00;23.93;;;6.00;99.90;;;;;;5112637;28;20200;-72
2022/09/30 07:27:12;;;;;;;46.10;21.50;;;6.30;99.90;;;;;;5112844;28;20192;-72
2022/09/30 07:29:39;;;;;;;43.20;19.30;;;6.40;99.90;;;;;;5112625;28;20227;-72
2022/09/30 07:32:07;;;;;;;33.67;18.73;;;6.40;99.90;;;;;;5113440;28;20282;-72
2022/09/30 07:34:35;;;;;;;27.10;19.23;;;6.50;99.90;;;;;;5116598;28;20265;-72
2022/09/30 07:37:02;;;;;;;45.37;20.03;;;6.80;99.90;;;;;;5116562;28;20196;-73
2022/09/30 07:39:30;;;;;;;81.50;20.97;;;6.70;99.90;;;;;;5116370;28;20278;-74
2022/09/30 07:41:56;;;;;;;74.97;19.10;;;6.70;99.90;;;;;;5116216;28;20199;-73
2022/09/30 07:44:25;;;;;;;28.93;16.87;;;6.70;99.90;;;;;;5116074;28;20247;-73
2022/09/30 07:46:52;;;;;;;29.30;17.40;;;6.90;99.90;;;;;;5116361;28;20203;-73
2022/09/30 07:49:23;;;;;;;27.97;17.37;;;7.10;99.90;;;;;;5115926;28;20224;-73
2022/09/30 07:51:50;;;;;;;26.23;15.90;;;7.30;99.90;;;;;;5116203;28;20204;-73
2022/09/30 07:54:21;;;;;;;22.30;16.83;;;7.50;99.90;;;;;;5116079;27;20205;-72
2022/09/30 07:56:48;;;;;;;39.37;16.90;;;7.90;99.90;;;;;;5115985;28;20281;-72
2022/09/30 07:59:15;;;;;;;21.20;16.30;;;8.00;99.90;;;;;;5115756;28;20256;-72
2022/09/30 08:01:42;;;;;;;20.53;16.20;;;8.20;99.90;;;;;;5115930;28;20608;-74
2022/09/30 08:04:11;;;;;;;21.53;16.47;;;8.50;99.90;;;;;;5116015;28;20248;-72
2022/09/30 08:06:42;;;;;;;23.40;17.67;;;8.40;99.90;;;;;;5115770;28;20195;-73
2022/09/30 08:09:09;;;;;;;19.90;16.43;;;8.50;99.90;;;;;;5115664;28;20264;-73
2022/09/30 08:11:37;;;;;;;20.17;16.80;;;8.60;99.90;;;;;;5115629;28;20209;-73
2022/09/30 08:14:04;;;;;;;20.40;16.10;;;8.70;99.90;;;;;;5115870;28;20200;-73
2022/09/30 08:16:31;;;;;;;19.37;15.47;;;9.00;99.90;;;;;;5115459;28;20199;-73
2022/09/30 08:18:59;;;;;;;18.60;16.07;;;9.20;99.90;;;;;;5115447;28;20566;-74
2022/09/30 08:21:27;;;;;;;19.60;15.33;;;9.40;99.90;;;;;;5115305;28;20241;-72
2022/09/30 08:23:56;;;;;;;22.33;16.57;;;9.60;99.90;;;;;;5115422;28;20191;-73
2022/09/30 08:26:23;;;;;;;21.17;16.23;;;9.90;99.90;;;;;;5115309;28;20261;-73
2022/09/30 08:28:50;;;;;;;20.50;15.13;;;9.90;99.90;;;;;;5115335;28;20246;-73
2022/09/30 08:31:18;;;;;;;16.97;14.60;;;10.10;99.90;;;;;;5115384;28;20200;-74
2022/09/30 08:33:45;;;;;;;15.50;12.50;;;10.30;99.90;;;;;;5115253;28;20200;-73
2022/09/30 08:36:14;;;;;;;11.87;10.57;;;10.50;99.90;;;;;;5115061;28;20613;-73
2022/09/30 08:38:41;;;;;;;12.50;11.13;;;10.60;99.90;;;;;;5114910;28;20631;-73
2022/09/30 08:41:23;;;;;;;12.60;10.40;;;10.80;99.90;;;;;;5115226;28;20195;-74
2022/09/30 08:44:01;;;;;;;13.57;11.57;;;11.00;99.90;;;;;;5115212;28;20249;-73
2022/09/30 08:46:38;;;;;;;10.97;9.63;;;11.10;99.90;;;;;;5115203;28;20655;-73
2022/09/30 08:49:26;;;;;;;11.07;9.10;;;11.40;99.90;;;;;;5114929;28;20288;-73
2022/09/30 08:51:54;;;;;;;10.97;9.87;;;11.80;99.90;;;;;;5115051;28;20385;-74
2022/09/30 08:54:23;;;;;;;12.00;10.80;;;12.00;99.90;;;;;;5114769;28;20195;-73
2022/09/30 08:56:51;;;;;;;12.07;10.80;;;12.20;99.90;;;;;;5114804;28;20267;-73
2022/09/30 08:59:28;;;;;;;12.77;11.47;;;12.50;99.90;;;;;;5114731;28;20260;-74
2022/09/30 09:02:00;;;;;;;11.57;10.47;;;12.60;99.90;;;;;;5114816;28;20207;-75
2022/09/30 09:04:27;;;;;;;12.20;10.83;;;12.80;99.90;;;;;;5114738;28;20203;-75
2022/09/30 09:07:05;;;;;;;13.33;10.87;;;13.00;99.90;;;;;;5114631;28;20200;-75
2022/09/30 09:09:47;;;;;;;12.83;11.53;;;13.00;99.90;;;;;;5114417;28;20298;-75
2022/09/30 09:12:29;;;;;;;15.83;14.00;;;13.10;99.90;;;;;;5114516;28;20260;-75
2022/09/30 09:15:11;;;;;;;14.43;12.70;;;13.20;99.90;;;;;;5114586;28;20206;-75
2022/09/30 09:17:54;;;;;;;14.70;13.20;;;13.10;99.90;;;;;;5114496;28;20241;-75
2022/09/30 09:20:24;;;;;;;13.83;12.43;;;13.20;99.90;;;;;;5114607;28;20210;-75
2022/09/30 09:22:52;;;;;;;14.23;12.80;;;13.40;99.90;;;;;;5114182;28;20224;-75
2022/09/30 09:25:25;;;;;;;13.57;12.20;;;13.60;99.90;;;;;;5114434;28;20200;-74
2022/09/30 09:27:57;;;;;;;13.27;11.88;;;13.60;99.90;;;;;;5114277;28;20282;-74
2022/09/30 09:30:25;;;;;;;13.45;12.02;;;13.80;99.90;;;;;;5113983;28;20227;-74
2022/09/30 09:32:55;;;;;;;14.52;12.35;;;14.20;99.90;;;;;;5114053;28;20199;-74
2022/09/30 09:35:35;;;;;;;13.52;12.23;;;14.50;99.90;;;;;;5114797;28;20199;-74
2022/09/30 09:41:10;;;;;;;14.63;12.15;;;14.80;99.90;;;;;;5110767;28;20195;-74
2022/09/30 09:43:57;;;;;;;12.27;11.07;;;14.80;99.90;;;;;;5114440;28;20195;-74
2022/09/30 09:46:29;;;;;;;12.73;10.77;;;15.00;99.90;;;;;;5114455;28;20204;-74
2022/09/30 09:49:26;;;;;;;12.60;11.15;;;15.00;99.90;;;;;;5114614;28;20219;-74
2022/09/30 09:52:05;;;;;;;12.32;11.23;;;15.20;99.90;;;;;;5114268;28;20196;-74
2022/09/30 09:54:35;;;;;;;14.45;11.45;;;15.50;99.90;;;;;;5113749;28;20199;-74
2022/09/30 09:57:08;;;;;;;11.38;10.18;;;15.60;99.90;;;;;;5114039;28;20245;-74
2022/09/30 09:59:37;;;;;;;11.18;9.65;;;15.90;99.90;;;;;;5114070;28;20215;-74
2022/09/30 10:02:22;;;;;;;12.10;10.90;;;16.50;99.90;;;;;;5113772;28;20203;-75
2022/09/30 10:04:58;;;;;;;11.30;10.20;;;17.20;99.90;;;;;;5113785;28;20204;-75
2022/09/30 10:07:27;;;;;;;10.73;9.43;;;17.50;99.90;;;;;;5113683;28;20203;-75
2022/09/30 10:10:07;;;;;;;10.48;9.57;;;18.00;99.90;;;;;;5113525;28;20223;-75
2022/09/30 10:12:34;;;;;;;10.57;9.48;;;18.30;99.90;;;;;;5113236;28;20687;-73
2022/09/30 10:15:20;;;;;;;12.60;11.32;;;18.30;99.90;;;;;;5113586;28;20195;-75
2022/09/30 10:17:53;;;;;;;10.45;9.43;;;17.90;99.90;;;;;;5113397;28;20668;-75
2022/09/30 10:20:26;;;;;;;9.38;8.15;;;18.20;99.90;;;;;;5113419;28;20207;-75
2022/09/30 10:23:01;;;;;;;8.95;8.15;;;18.40;99.90;;;;;;5113315;28;20280;-75
2022/09/30 10:25:28;;;;;;;8.93;8.15;;;18.50;99.90;;;;;;5113512;28;20219;-76
2022/09/30 10:27:57;;;;;;;9.32;7.97;;;18.70;99.90;;;;;;5113253;28;20203;-76
2022/09/30 10:30:46;;;;;;;9.40;8.50;;;18.70;99.90;;;;;;5113221;28;20250;-75
2022/09/30 10:33:19;;;;;;;10.95;9.80;;;18.60;99.90;;;;;;5113204;28;20206;-75
2022/09/30 10:35:54;;;;;;;10.65;8.52;;;18.70;99.90;;;;;;5113363;28;20268;-76
2022/09/30 10:38:22;;;;;;;11.02;10.13;;;19.20;99.90;;;;;;5113272;28;20719;-76
2022/09/30 10:40:50;;;;;;;9.70;8.70;;;18.60;99.90;;;;;;5113221;28;20211;-75
2022/09/30 10:43:22;;;;;;;10.30;9.30;;;19.30;99.90;;;;;;5113023;28;20196;-76
2022/09/30 10:45:51;;;;;;;10.95;9.35;;;19.30;99.90;;;;;;5112742;28;20249;-75
2022/09/30 10:48:22;;;;;;;9.77;8.88;;;19.10;99.90;;;;;;5112740;28;20745;-76
2022/09/30 10:50:52;;;;;;;10.18;9.07;;;18.90;99.90;;;;;;5113118;28;20230;-76
2022/09/30 10:53:22;;;;;;;10.88;9.95;;;18.90;99.90;;;;;;5112757;28;20200;-76
2022/09/30 10:55:49;;;;;;;11.63;10.52;;;18.50;99.90;;;;;;5112906;28;20214;-76
2022/09/30 10:58:28;;;;;;;9.98;9.07;;;18.80;99.90;;;;;;5112866;28;20252;-74
2022/09/30 11:01:02;;;;;;;8.02;7.28;;;18.50;99.90;;;;;;5112814;28;20207;-76
2022/09/30 11:03:33;;;;;;;8.02;7.38;;;18.30;99.90;;;;;;5112807;28;20200;-76
2022/09/30 11:06:00;;;;;;;6.78;6.18;;;17.80;99.90;;;;;;5112911;28;20253;-77
2022/09/30 11:08:34;;;;;;;7.25;6.28;;;17.60;99.90;;;;;;5115784;28;20282;-76
2022/09/30 11:11:09;;;;;;;7.45;5.65;;;17.40;99.90;;;;;;5116845;28;20260;-76
2022/09/30 11:13:40;;;;;;;8.98;7.20;;;16.80;99.90;;;;;;5116866;28;20209;-76
2022/09/30 11:16:16;;;;;;;8.52;7.20;;;16.80;99.90;;;;;;5116806;28;20214;-76
2022/09/30 11:18:47;;;;;;;7.70;6.50;;;16.90;99.90;;;;;;5116730;28;20199;-76
2022/09/30 11:21:19;;;;;;;8.27;6.97;;;17.40;99.90;;;;;;5116496;28;20873;-76
2022/09/30 11:23:49;;;;;;;9.63;8.63;;;17.90;99.90;;;;;;5116215;28;20219;-76
2022/09/30 11:26:26;;;;;;;10.68;9.55;;;19.20;99.90;;;;;;5116835;28;20192;-76
2022/09/30 11:29:05;;;;;;;9.70;8.80;;;19.90;99.90;;;;;;5116528;28;20195;-75
2022/09/30 11:31:40;;;;;;;7.85;7.15;;;20.90;99.90;;;;;;5116420;28;20248;-75
2022/09/30 11:34:24;;;;;;;8.65;7.85;;;21.40;99.90;;;;;;5116257;28;20643;-75
2022/09/30 11:37:01;;;;;;;9.27;8.43;;;21.10;99.90;;;;;;5116400;28;20204;-75
2022/09/30 11:40:03;;;;;;;9.48;8.68;;;20.10;99.90;;;;;;5116408;28;20199;-76
2022/09/30 11:42:36;;;;;;;8.38;7.68;;;20.40;99.90;;;;;;5102798;28;20199;-75
2022/09/30 11:45:15;;;;;;;9.07;7.45;;;19.50;99.90;;;;;;5116406;28;20257;-75
2022/09/30 11:47:56;;;;;;;9.80;8.80;;;19.00;99.90;;;;;;5116144;28;20195;-75
2022/09/30 11:50:40;;;;;;;9.23;8.40;;;17.80;99.90;;;;;;5115853;28;20269;-75
2022/09/30 11:53:17;;;;;;;9.35;8.55;;;16.30;99.90;;;;;;5116202;28;20593;-76
2022/09/30 11:56:04;;;;;;;9.68;8.75;;;15.90;99.90;;;;;;5116030;28;20191;-74
2022/09/30 11:58:36;;;;;;;9.18;8.38;;;16.80;99.90;;;;;;5115965;28;20196;-76
2022/09/30 12:01:15;;;;;;;9.68;8.68;;;17.90;99.90;;;;;;5115876;28;20246;-75
2022/09/30 12:03:49;;;;;;;9.43;8.52;;;18.60;99.90;;;;;;5115991;28;20237;-75
2022/09/30 12:06:25;;;;;;;8.30;7.50;;;19.50;99.90;;;;;;5115835;28;20649;-75
2022/09/30 12:08:55;;;;;;;7.78;6.97;;;20.20;99.90;;;;;;5116002;28;20195;-75
2022/09/30 12:11:32;;;;;;;6.88;6.18;;;19.90;99.90;;;;;;5115413;28;20226;-75
2022/09/30 12:14:04;;;;;;;6.30;5.80;;;19.20;99.90;;;;;;5115810;28;20199;-75
2022/09/30 12:16:34;;;;;;;7.28;6.55;;;19.30;99.90;;;;;;5115753;28;20203;-75
2022/09/30 12:19:12;;;;;;;7.80;7.00;;;19.60;99.90;;;;;;5115169;28;20288;-75
2022/09/30 12:21:44;;;;;;;9.52;5.53;;;21.10;99.90;;;;;;5115252;28;20203;-75
2022/09/30 12:24:22;;;;;;;5.60;5.10;;;22.20;99.90;;;;;;5115416;28;20246;-75
2022/09/30 12:26:49;;;;;;;6.20;5.53;;;22.40;98.20;;;;;;5115434;28;20204;-75
2022/09/30 12:32:18;;;;;;;5.97;5.47;;;22.30;95.40;;;;;;5115559;28;20203;-76
2022/09/30 12:35:00;;;;;;;6.07;5.50;;;21.90;95.50;;;;;;5115366;28;20199;-75
2022/09/30 12:37:41;;;;;;;5.13;4.63;;;23.60;93.90;;;;;;5115165;28;20195;-78
2022/09/30 12:40:32;;;;;;;5.18;4.72;;;23.40;91.90;;;;;;5115229;28;20199;-75
2022/09/30 12:43:22;;;;;;;6.07;4.57;;;21.90;92.60;;;;;;5115367;28;20192;-74
2022/09/30 12:46:16;;;;;;;4.60;4.20;;;23.50;91.80;;;;;;5114709;28;20200;-75
2022/09/30 12:48:47;;;;;;;5.07;4.57;;;24.10;90.00;;;;;;5114819;28;20192;-75
2022/09/30 12:51:25;;;;;;;5.30;4.60;;;25.70;85.00;;;;;;5114833;28;20245;-75
2022/09/30 12:53:58;;;;;;;5.80;4.60;;;24.40;82.20;;;;;;5114844;28;20198;-75
2022/09/30 12:56:28;;;;;;;4.57;4.18;;;24.60;83.30;;;;;;5114591;28;20716;-75
2022/09/30 12:58:56;;;;;;;4.30;3.90;;;22.70;80.90;;;;;;5114614;28;20609;-75
2022/09/30 13:01:25;;;;;;;4.82;4.00;;;22.20;82.40;;;;;;5114390;28;20294;-75
2022/09/30 13:04:09;;;;;;;5.47;3.67;;;20.60;81.30;;;;;;5114690;28;20196;-76